createdAt,value
2017-07-23T00:02:27.274Z,82.00
2017-07-23T00:04:56.280Z,81.80
2017-07-23T00:07:26.006Z,82.30
2017-07-23T00:09:55.004Z,82.30
2017-07-23T00:12:24.080Z,82.30
2017-07-23T00:14:53.809Z,82.30
2017-07-23T00:17:22.784Z,82.20
2017-07-23T00:19:52.540Z,82.00
2017-07-23T00:22:21.525Z,81.90
2017-07-23T00:24:50.485Z,81.80
2017-07-23T00:27:19.455Z,81.80
2017-07-23T00:29:49.186Z,82.50
2017-07-23T00:32:18.213Z,81.60
2017-07-23T00:34:52.427Z,82.20
2017-07-23T00:37:21.417Z,82.20
2017-07-23T00:39:51.083Z,82.50
2017-07-23T00:42:20.898Z,82.70
2017-07-23T00:44:49.887Z,82.60
2017-07-23T00:47:18.873Z,82.80
2017-07-23T00:49:48.617Z,82.80
2017-07-23T00:52:17.596Z,82.60
2017-07-23T00:54:46.625Z,82.50
2017-07-23T00:57:15.595Z,82.50
2017-07-23T00:59:44.641Z,82.30
2017-07-23T01:02:13.610Z,82.10
2017-07-23T01:04:42.583Z,81.50
2017-07-23T01:07:11.570Z,81.30
2017-07-23T01:09:40.536Z,81.30
2017-07-23T01:12:10.290Z,81.20
2017-07-23T01:14:39.369Z,81.20
2017-07-23T01:17:14.387Z,81.30
2017-07-23T01:19:43.348Z,81.30
2017-07-23T01:22:13.112Z,81.70
2017-07-23T01:24:43.290Z,81.00
2017-07-23T01:27:13.110Z,81.00
2017-07-23T01:29:42.076Z,80.90
2017-07-23T01:32:11.134Z,81.10
2017-07-23T01:34:40.121Z,81.30
2017-07-23T01:37:09.090Z,81.30
2017-07-23T01:39:38.069Z,80.60
2017-07-23T01:42:07.056Z,80.80
2017-07-23T01:44:36.790Z,81.40
2017-07-23T01:47:05.760Z,81.00
2017-07-23T01:49:34.875Z,80.90
2017-07-23T01:52:03.823Z,79.90
2017-07-23T01:54:33.598Z,81.00
2017-07-23T01:57:02.552Z,81.70
2017-07-23T01:59:31.521Z,81.00
2017-07-23T02:02:00.476Z,81.00
2017-07-23T02:04:29.441Z,81.10
2017-07-23T02:06:58.436Z,80.80
2017-07-23T02:09:27.384Z,81.10
2017-07-23T02:11:59.443Z,80.90
2017-07-23T02:14:28.394Z,80.40
2017-07-23T02:16:57.453Z,81.80
2017-07-23T02:19:27.187Z,83.70
2017-07-23T02:21:56.217Z,84.10
2017-07-23T02:24:25.176Z,84.30
2017-07-23T02:26:54.160Z,84.90
2017-07-23T02:29:23.120Z,84.40
2017-07-23T02:31:52.914Z,83.90
2017-07-23T02:34:21.869Z,83.90
2017-07-23T02:36:50.829Z,85.00
2017-07-23T02:39:20.593Z,84.60
2017-07-23T02:41:49.564Z,84.60
2017-07-23T02:44:18.514Z,85.50
2017-07-23T02:46:48.261Z,85.90
2017-07-23T02:49:17.463Z,85.80
2017-07-23T02:51:46.520Z,86.20
2017-07-23T02:54:15.485Z,87.70
2017-07-23T02:56:44.432Z,88.40
2017-07-23T02:59:13.497Z,87.10
2017-07-23T03:01:42.442Z,86.40
2017-07-23T03:04:11.432Z,85.40
2017-07-23T03:06:40.406Z,86.40
2017-07-23T03:09:09.384Z,86.20
2017-07-23T03:11:38.663Z,87.30
2017-07-23T03:14:07.819Z,87.10
2017-07-23T03:16:36.791Z,87.30
2017-07-23T03:19:05.786Z,86.20
2017-07-23T03:21:34.760Z,86.80
2017-07-23T03:24:03.699Z,86.70
2017-07-23T03:26:32.633Z,86.80
2017-07-23T03:29:01.599Z,87.00
2017-07-23T03:31:30.573Z,85.40
2017-07-23T03:33:59.529Z,85.20
2017-07-23T03:36:28.578Z,86.00
2017-07-23T03:38:57.534Z,85.90
2017-07-23T03:41:26.486Z,85.00
2017-07-23T03:43:55.436Z,85.50
2017-07-23T03:46:24.420Z,85.30
2017-07-23T03:48:53.368Z,84.90
2017-07-23T03:51:22.352Z,85.30
2017-07-23T03:53:51.319Z,85.90
2017-07-23T03:56:21.060Z,87.00
2017-07-23T03:58:50.134Z,87.30
2017-07-23T04:01:19.082Z,87.00
2017-07-23T04:03:48.025Z,86.30
2017-07-23T04:06:17.764Z,86.20
2017-07-23T04:08:46.715Z,86.20
2017-07-23T04:11:16.450Z,85.60
2017-07-23T04:13:45.397Z,85.60
2017-07-23T04:16:14.408Z,85.60
2017-07-23T04:18:43.347Z,85.60
2017-07-23T04:21:12.336Z,87.70
2017-07-23T04:23:41.291Z,86.80
2017-07-23T04:26:10.318Z,86.90
2017-07-23T04:28:39.259Z,85.70
2017-07-23T04:31:08.209Z,86.10
2017-07-23T04:33:37.183Z,86.50
2017-07-23T04:36:06.149Z,86.70
2017-07-23T04:38:35.956Z,87.60
2017-07-23T04:41:05.672Z,87.50
2017-07-23T04:43:35.455Z,88.30
2017-07-23T04:46:04.430Z,88.30
2017-07-23T04:48:33.379Z,88.50
2017-07-23T04:51:02.456Z,89.40
2017-07-23T04:53:32.261Z,87.50
2017-07-23T04:56:01.393Z,87.50
2017-07-23T04:58:30.349Z,86.50
2017-07-23T05:00:59.393Z,87.60
2017-07-23T05:03:28.365Z,87.40
2017-07-23T05:05:57.360Z,87.20
2017-07-23T05:08:26.314Z,88.20
2017-07-23T05:10:56.047Z,88.10
2017-07-23T05:13:26.251Z,89.00
2017-07-23T05:15:56.062Z,87.50
2017-07-23T05:18:25.055Z,87.50
2017-07-23T05:20:54.869Z,89.60
2017-07-23T05:23:24.594Z,89.80
2017-07-23T05:25:53.567Z,89.10
2017-07-23T05:28:22.531Z,90.00
2017-07-23T05:30:51.520Z,89.50
2017-07-23T05:33:20.507Z,89.90
2017-07-23T05:35:49.539Z,89.70
2017-07-23T05:38:19.352Z,89.20
2017-07-23T05:40:49.096Z,89.60
2017-07-23T05:43:18.055Z,89.60
2017-07-23T05:45:47.837Z,90.20
2017-07-23T05:48:16.883Z,90.10
2017-07-23T05:50:45.875Z,89.50
2017-07-23T05:53:14.819Z,90.00
2017-07-23T05:55:43.873Z,89.90
2017-07-23T05:58:12.925Z,89.80
2017-07-23T06:00:42.677Z,90.10
2017-07-23T06:03:11.746Z,90.10
2017-07-23T06:05:40.837Z,90.20
2017-07-23T06:08:09.862Z,90.20
2017-07-23T06:10:38.853Z,90.40
2017-07-23T06:13:07.981Z,90.30
2017-07-23T06:15:37.026Z,90.70
2017-07-23T06:18:06.000Z,90.70
2017-07-23T06:20:34.959Z,90.80
2017-07-23T06:23:03.954Z,90.30
2017-07-23T06:25:32.920Z,90.50
2017-07-23T06:28:01.885Z,90.40
2017-07-23T06:30:30.881Z,90.30
2017-07-23T06:32:59.848Z,90.70
2017-07-23T06:35:29.614Z,90.40
2017-07-23T06:37:58.586Z,90.30
2017-07-23T06:40:27.569Z,89.40
2017-07-23T06:42:56.532Z,89.50
2017-07-23T06:45:26.296Z,89.70
2017-07-23T06:47:55.244Z,89.70
2017-07-23T06:50:27.435Z,89.50
2017-07-23T06:52:59.284Z,88.00
2017-07-23T06:55:28.264Z,87.90
2017-07-23T06:57:57.241Z,86.70
2017-07-23T07:00:29.870Z,87.60
2017-07-23T07:02:58.959Z,87.70
2017-07-23T07:05:27.926Z,86.00
2017-07-23T07:07:56.883Z,86.20
2017-07-23T07:10:26.653Z,86.30
2017-07-23T07:12:55.635Z,87.10
2017-07-23T07:15:24.648Z,85.50
2017-07-23T07:17:53.635Z,83.60
2017-07-23T07:20:22.622Z,85.50
2017-07-23T07:22:51.599Z,82.40
2017-07-23T07:25:20.580Z,83.20
2017-07-23T07:27:49.537Z,82.20
2017-07-23T07:30:19.495Z,79.60
2017-07-23T07:32:48.518Z,80.00
2017-07-23T07:35:17.534Z,80.20
2017-07-23T07:37:46.503Z,80.60
2017-07-23T07:40:15.534Z,81.90
2017-07-23T07:42:45.272Z,81.30
2017-07-23T07:45:14.242Z,81.20
2017-07-23T07:47:43.987Z,81.90
2017-07-23T07:50:13.098Z,81.90
2017-07-23T07:52:42.136Z,82.00
2017-07-23T07:55:11.872Z,78.90
2017-07-23T07:57:40.843Z,78.80
2017-07-23T08:00:09.816Z,79.70
2017-07-23T08:02:39.557Z,78.30
2017-07-23T08:05:08.583Z,78.30
2017-07-23T08:07:37.558Z,79.20
2017-07-23T08:10:06.550Z,78.10
2017-07-23T08:12:35.513Z,76.90
2017-07-23T08:15:04.476Z,74.80
2017-07-23T08:17:33.462Z,75.90
2017-07-23T08:20:02.470Z,75.00
2017-07-23T08:22:31.429Z,77.00
2017-07-23T08:25:00.452Z,74.70
2017-07-23T08:27:29.410Z,74.70
2017-07-23T08:29:58.394Z,75.00
2017-07-23T08:32:27.340Z,75.00
2017-07-23T08:34:56.317Z,73.70
2017-07-23T08:37:25.254Z,72.90
2017-07-23T08:39:54.335Z,72.80
2017-07-23T08:42:23.287Z,71.90
2017-07-23T08:44:52.220Z,68.80
2017-07-23T08:47:21.198Z,69.40
2017-07-23T08:49:50.254Z,70.00
2017-07-23T08:52:19.187Z,71.20
2017-07-23T08:54:49.959Z,71.40
2017-07-23T08:57:30.268Z,71.70
2017-07-23T08:59:59.248Z,71.10
2017-07-23T09:02:28.221Z,70.50
2017-07-23T09:04:57.175Z,69.80
2017-07-23T09:07:26.120Z,72.00
2017-07-23T09:09:55.886Z,73.90
2017-07-23T09:12:24.895Z,74.70
2017-07-23T09:14:53.868Z,71.90
2017-07-23T09:17:22.857Z,74.10
2017-07-23T09:19:51.825Z,74.10
2017-07-23T09:22:20.803Z,75.60
2017-07-23T09:24:50.509Z,72.10
2017-07-23T09:27:19.471Z,72.30
2017-07-23T09:29:48.417Z,70.90
2017-07-23T09:32:17.405Z,70.60
2017-07-23T09:34:46.372Z,70.60
2017-07-23T09:37:15.355Z,70.20
2017-07-23T09:39:44.289Z,69.90
2017-07-23T09:42:13.266Z,69.40
2017-07-23T09:44:42.232Z,65.90
2017-07-23T09:47:11.195Z,67.60
2017-07-23T09:49:40.166Z,66.60
2017-07-23T09:52:09.182Z,66.00
2017-07-23T09:54:38.144Z,67.50
2017-07-23T09:57:07.126Z,68.30
2017-07-23T09:59:36.084Z,66.70
2017-07-23T10:02:05.073Z,65.00
2017-07-23T10:04:34.034Z,66.20
2017-07-23T10:07:03.222Z,65.00
2017-07-23T10:09:32.203Z,62.50
2017-07-23T10:12:01.179Z,61.50
2017-07-23T10:14:30.141Z,61.10
2017-07-23T10:16:59.176Z,62.60
2017-07-23T10:19:28.133Z,62.90
2017-07-23T10:21:57.088Z,60.80
2017-07-23T10:24:26.082Z,60.80
2017-07-23T10:26:55.068Z,59.90
2017-07-23T10:29:24.013Z,62.70
2017-07-23T10:31:52.952Z,61.40
2017-07-23T10:34:21.984Z,62.00
2017-07-23T10:36:51.341Z,68.50
2017-07-23T10:39:21.216Z,71.50
2017-07-23T10:41:50.954Z,65.50
2017-07-23T10:44:19.970Z,78.90
2017-07-23T10:46:48.956Z,82.30
2017-07-23T10:49:17.949Z,84.60
2017-07-23T10:51:46.943Z,86.90
2017-07-23T10:56:51.966Z,86.60
2017-07-23T10:59:20.955Z,85.70
2017-07-23T11:01:49.994Z,86.30
2017-07-23T11:04:19.075Z,85.80
2017-07-23T11:06:48.066Z,86.00
2017-07-23T11:09:17.009Z,85.60
2017-07-23T11:11:45.952Z,83.10
2017-07-23T11:14:15.027Z,81.90
2017-07-23T11:16:43.976Z,80.60
2017-07-23T11:19:13.000Z,79.30
2017-07-23T11:21:41.972Z,80.10
2017-07-23T11:24:11.104Z,77.40
2017-07-23T11:26:40.079Z,69.30
2017-07-23T11:29:09.102Z,68.60
2017-07-23T11:31:38.087Z,74.10
2017-07-23T11:34:07.071Z,74.70
2017-07-23T11:36:36.046Z,71.00
2017-07-23T11:39:05.012Z,64.20
2017-07-23T11:41:33.975Z,60.20
2017-07-23T11:44:02.945Z,58.40
2017-07-23T11:46:32.018Z,63.10
2017-07-23T11:49:01.614Z,69.10
2017-07-23T11:51:30.570Z,63.80
2017-07-23T11:54:01.495Z,63.20
2017-07-23T11:56:30.772Z,58.00
2017-07-23T11:58:59.774Z,60.80
2017-07-23T12:01:35.704Z,63.50
2017-07-23T12:04:04.681Z,60.40
2017-07-23T12:06:33.628Z,65.60
2017-07-23T12:09:04.513Z,60.20
2017-07-23T12:11:33.871Z,62.80
2017-07-23T12:14:03.815Z,56.50
2017-07-23T12:16:32.767Z,57.30
2017-07-23T12:19:06.408Z,55.90
2017-07-23T12:21:41.274Z,47.50
2017-07-23T12:24:19.478Z,47.30
2017-07-23T12:26:55.450Z,47.30
2017-07-23T12:29:24.448Z,49.40
2017-07-23T12:31:53.403Z,48.00
2017-07-23T12:34:22.404Z,50.90
2017-07-23T12:36:52.121Z,46.30
2017-07-23T12:39:21.119Z,46.30
2017-07-23T12:41:50.197Z,50.50
2017-07-23T12:44:19.168Z,51.40
2017-07-23T12:46:48.162Z,51.30
2017-07-23T12:49:17.153Z,51.90
2017-07-23T12:51:46.107Z,51.10
2017-07-23T12:54:15.141Z,54.30
2017-07-23T12:56:44.093Z,53.70
2017-07-23T12:59:13.095Z,52.80
2017-07-23T13:01:42.038Z,53.50
2017-07-23T13:04:11.017Z,52.50
2017-07-23T13:06:40.057Z,53.00
2017-07-23T13:09:09.141Z,51.90
2017-07-23T13:11:38.118Z,48.70
2017-07-23T13:14:07.074Z,48.70
2017-07-23T13:16:36.080Z,46.20
2017-07-23T13:19:05.080Z,43.90
2017-07-23T13:21:34.033Z,44.00
2017-07-23T13:24:03.025Z,50.00
2017-07-23T13:26:31.988Z,50.50
2017-07-23T13:29:00.961Z,51.00
2017-07-23T13:31:30.695Z,50.20
2017-07-23T13:33:59.672Z,50.20
2017-07-23T13:36:28.804Z,46.70
2017-07-23T13:38:57.847Z,44.70
2017-07-23T13:41:28.247Z,42.70
2017-07-23T13:43:57.247Z,42.20
2017-07-23T13:46:26.202Z,44.70
2017-07-23T13:48:55.177Z,46.50
2017-07-23T13:51:24.166Z,46.70
2017-07-23T13:53:53.140Z,48.30
2017-07-23T13:56:22.105Z,48.90
2017-07-23T13:58:51.077Z,51.20
2017-07-23T14:01:20.041Z,50.70
2017-07-23T14:03:49.025Z,50.40
2017-07-23T14:06:17.972Z,52.50
2017-07-23T14:08:46.952Z,52.00
2017-07-23T14:11:15.936Z,49.90
2017-07-23T14:13:44.921Z,49.60
2017-07-23T14:16:13.905Z,50.40
2017-07-23T14:18:42.889Z,48.50
2017-07-23T14:21:11.847Z,48.80
2017-07-23T14:23:40.877Z,48.40
2017-07-23T14:26:09.844Z,46.40
2017-07-23T14:28:38.796Z,46.90
2017-07-23T14:31:07.792Z,49.20
2017-07-23T14:33:36.736Z,51.00
2017-07-23T14:36:05.725Z,53.10
2017-07-23T14:38:34.690Z,53.10
2017-07-23T14:41:04.448Z,52.60
2017-07-23T14:43:33.453Z,52.60
2017-07-23T14:46:02.408Z,53.50
2017-07-23T14:48:31.412Z,54.30
2017-07-23T14:51:00.439Z,53.70
2017-07-23T14:53:29.603Z,54.30
2017-07-23T14:55:58.577Z,53.70
2017-07-23T14:58:27.527Z,52.70
2017-07-23T15:00:56.487Z,54.00
2017-07-23T15:03:25.461Z,54.20
2017-07-23T15:05:54.428Z,55.50
2017-07-23T15:08:24.198Z,56.70
2017-07-23T15:10:53.149Z,56.60
2017-07-23T15:13:22.110Z,57.00
2017-07-23T15:15:51.865Z,59.00
2017-07-23T15:18:21.094Z,58.80
2017-07-23T15:20:50.033Z,58.70
2017-07-23T15:23:19.025Z,58.00
2017-07-23T15:25:48.821Z,58.60
2017-07-23T15:28:18.573Z,55.00
2017-07-23T15:30:47.511Z,55.00
2017-07-23T15:33:17.249Z,52.60
2017-07-23T15:35:46.209Z,52.60
2017-07-23T15:38:15.171Z,52.80
2017-07-23T15:40:44.149Z,53.90
2017-07-23T15:43:13.165Z,55.20
2017-07-23T15:45:42.116Z,56.80
2017-07-23T15:48:11.081Z,56.00
2017-07-23T15:50:40.886Z,57.40
2017-07-23T15:53:09.845Z,57.40
2017-07-23T15:55:38.834Z,54.70
2017-07-23T15:58:07.780Z,56.90
2017-07-23T16:00:36.765Z,54.00
2017-07-23T16:03:05.813Z,54.40
2017-07-23T16:05:34.792Z,54.10
2017-07-23T16:08:03.738Z,53.80
2017-07-23T16:10:33.501Z,54.70
2017-07-23T16:13:02.726Z,54.00
2017-07-23T16:15:31.672Z,53.90
2017-07-23T16:18:00.662Z,54.80
2017-07-23T16:20:29.646Z,51.80
2017-07-23T16:22:58.665Z,54.90
2017-07-23T16:25:27.649Z,52.50
2017-07-23T16:27:56.604Z,52.60
2017-07-23T16:30:25.588Z,51.80
2017-07-23T16:32:55.441Z,51.50
2017-07-23T16:35:24.412Z,51.40
2017-07-23T16:37:53.386Z,52.90
2017-07-23T16:40:22.412Z,54.50
2017-07-23T16:42:51.356Z,55.50
2017-07-23T16:45:20.364Z,55.70
2017-07-23T16:47:50.117Z,56.60
2017-07-23T16:50:19.058Z,56.50
2017-07-23T16:52:48.040Z,55.50
2017-07-23T16:55:17.026Z,56.00
2017-07-23T16:57:45.989Z,56.20
2017-07-23T17:00:14.949Z,56.60
2017-07-23T17:02:43.926Z,56.70
2017-07-23T17:05:13.662Z,58.20
2017-07-23T17:07:42.702Z,58.10
2017-07-23T17:10:11.651Z,57.10
2017-07-23T17:12:40.604Z,58.20
2017-07-23T17:15:09.562Z,57.20
2017-07-23T17:17:38.596Z,58.20
2017-07-23T17:20:08.322Z,60.60
2017-07-23T17:22:37.315Z,60.50
2017-07-23T17:25:06.806Z,64.60
2017-07-23T17:27:36.597Z,62.40
2017-07-23T17:30:05.551Z,62.30
2017-07-23T17:32:34.509Z,65.10
2017-07-23T17:35:04.254Z,67.20
2017-07-23T17:37:33.235Z,67.30
2017-07-23T17:40:02.200Z,67.60
2017-07-23T17:42:31.995Z,67.30
2017-07-23T17:45:01.091Z,67.20
2017-07-23T17:47:30.055Z,68.00
2017-07-23T17:49:59.039Z,67.60
2017-07-23T17:52:27.998Z,70.40
2017-07-23T17:54:56.975Z,70.00
2017-07-23T17:57:26.870Z,71.20
2017-07-23T17:59:55.809Z,71.20
2017-07-23T18:02:24.786Z,70.80
2017-07-23T18:04:53.742Z,70.60
2017-07-23T18:07:22.826Z,66.90
2017-07-23T18:09:51.778Z,66.50
2017-07-23T18:12:20.775Z,67.20
2017-07-23T18:14:49.734Z,69.50
2017-07-23T18:17:18.742Z,68.20
2017-07-23T18:19:47.790Z,74.80
2017-07-23T18:22:16.754Z,75.10
2017-07-23T18:24:45.732Z,76.80
2017-07-23T18:27:14.758Z,78.30
2017-07-23T18:29:43.762Z,78.90
2017-07-23T18:32:12.722Z,79.50
2017-07-23T18:34:41.791Z,82.40
2017-07-23T18:37:10.759Z,81.90
2017-07-23T18:39:39.758Z,83.30
2017-07-23T18:42:09.524Z,82.00
2017-07-23T18:44:38.523Z,82.00
2017-07-23T18:47:07.475Z,82.70
2017-07-23T18:49:36.467Z,82.60
2017-07-23T18:52:05.432Z,81.10
2017-07-23T18:54:34.568Z,81.90
2017-07-23T18:57:03.527Z,82.10
2017-07-23T18:59:33.307Z,79.70
2017-07-23T19:02:02.312Z,79.70
2017-07-23T19:04:31.384Z,78.70
2017-07-23T19:07:01.811Z,79.70
2017-07-23T19:09:30.769Z,80.50
2017-07-23T19:12:00.553Z,80.60
2017-07-23T19:14:29.557Z,80.30
2017-07-23T19:16:58.564Z,80.80
2017-07-23T19:19:27.531Z,81.00
2017-07-23T19:21:58.907Z,80.20
2017-07-23T19:24:28.638Z,80.20
2017-07-23T19:26:58.384Z,80.80
2017-07-23T19:29:27.336Z,80.80
2017-07-23T19:31:56.954Z,80.70
2017-07-23T19:34:25.938Z,80.70
2017-07-23T19:36:54.932Z,81.00
2017-07-23T19:39:23.918Z,81.00
2017-07-23T19:41:52.882Z,80.60
2017-07-23T19:44:21.879Z,80.40
2017-07-23T19:46:50.913Z,80.40
2017-07-23T19:49:19.874Z,81.30
2017-07-23T19:51:49.826Z,81.00
2017-07-23T19:54:18.775Z,80.60
2017-07-23T19:56:47.756Z,80.40
2017-07-23T19:59:16.734Z,80.60
2017-07-23T20:01:46.172Z,80.00
2017-07-23T20:04:15.783Z,80.00
2017-07-23T20:06:44.892Z,80.00
2017-07-23T20:09:13.957Z,79.70
2017-07-23T20:11:43.436Z,80.30
2017-07-23T20:14:12.441Z,80.40
2017-07-23T20:16:41.475Z,80.10
2017-07-23T20:19:10.483Z,80.10
2017-07-23T20:21:41.023Z,80.20
2017-07-23T20:27:30.006Z,79.30
2017-07-23T20:29:59.008Z,80.10
2017-07-23T20:32:28.786Z,81.10
2017-07-23T20:34:57.744Z,81.00
2017-07-23T20:37:26.879Z,81.60
2017-07-23T20:39:55.839Z,81.10
2017-07-23T20:42:24.831Z,80.80
2017-07-23T20:44:53.774Z,80.70
2017-07-23T20:47:23.546Z,80.80
2017-07-23T20:49:53.222Z,80.80
2017-07-23T20:52:22.313Z,80.50
2017-07-23T20:54:51.288Z,80.40
2017-07-23T20:57:20.226Z,80.80
2017-07-23T20:59:49.196Z,80.30
2017-07-23T21:02:18.175Z,80.70
2017-07-23T21:04:47.908Z,80.40
2017-07-23T21:07:16.898Z,80.40
2017-07-23T21:09:46.213Z,80.30
2017-07-23T21:12:15.199Z,79.80
2017-07-23T21:14:44.182Z,79.20
2017-07-23T21:17:13.121Z,79.10
2017-07-23T21:19:42.063Z,79.00
2017-07-23T21:22:11.018Z,80.00
2017-07-23T21:24:39.996Z,79.60
2017-07-23T21:27:08.942Z,79.50
2017-07-23T21:29:37.924Z,79.40
2017-07-23T21:32:06.995Z,79.70
2017-07-23T21:34:35.984Z,79.90
2017-07-23T21:37:04.950Z,80.10
2017-07-23T21:39:33.906Z,79.60
2017-07-23T21:42:02.906Z,79.00
2017-07-23T21:44:31.857Z,78.80
2017-07-23T21:47:00.808Z,78.40
2017-07-23T21:49:30.595Z,79.50
2017-07-23T21:51:59.576Z,79.50
2017-07-23T21:54:28.524Z,80.00
2017-07-23T21:56:57.477Z,80.60
2017-07-23T21:59:26.465Z,80.20
2017-07-23T22:01:55.445Z,79.30
2017-07-23T22:04:24.416Z,79.90
2017-07-23T22:06:53.356Z,80.00
2017-07-23T22:09:22.334Z,80.10
2017-07-23T22:11:51.315Z,79.50
2017-07-23T22:14:20.264Z,79.60
2017-07-23T22:16:49.185Z,79.50
2017-07-23T22:19:18.160Z,79.50
2017-07-23T22:21:47.527Z,78.40
2017-07-23T22:24:16.476Z,78.70
2017-07-23T22:26:45.426Z,78.90
2017-07-23T22:29:14.409Z,79.20
2017-07-23T22:31:43.348Z,78.90
2017-07-23T22:34:12.309Z,78.60
2017-07-23T22:36:41.272Z,79.60
2017-07-23T22:39:10.231Z,79.60
2017-07-23T22:41:39.224Z,79.10
2017-07-23T22:44:08.184Z,78.90
2017-07-23T22:46:37.132Z,78.70
2017-07-23T22:49:06.879Z,78.80
2017-07-23T22:51:35.919Z,78.80
2017-07-23T22:54:04.847Z,79.10
2017-07-23T22:56:33.843Z,78.70
2017-07-23T22:59:02.787Z,78.90
2017-07-23T23:01:31.759Z,79.20
2017-07-23T23:04:00.738Z,79.30
2017-07-23T23:06:29.734Z,78.90
2017-07-23T23:08:58.736Z,79.30
2017-07-23T23:11:27.766Z,78.80
2017-07-23T23:13:57.272Z,78.40
2017-07-23T23:16:26.245Z,77.90
2017-07-23T23:18:55.363Z,79.10
2017-07-23T23:21:24.320Z,79.40
2017-07-23T23:23:53.298Z,78.90
2017-07-23T23:26:22.282Z,78.40
2017-07-23T23:28:51.291Z,78.40
2017-07-23T23:31:21.396Z,78.10
2017-07-23T23:33:50.361Z,78.40
2017-07-23T23:36:19.302Z,78.40
2017-07-23T23:38:48.357Z,78.60
2017-07-23T23:41:17.328Z,79.40
2017-07-23T23:43:47.109Z,79.80
2017-07-23T23:46:16.055Z,79.60
2017-07-23T23:48:45.002Z,79.10
2017-07-23T23:51:13.973Z,79.20
2017-07-23T23:53:42.966Z,79.70
2017-07-23T23:56:12.661Z,79.40
2017-07-23T23:58:41.753Z,79.50
